createdAt,value
2023-03-26T00:01:07.631Z,99884.19
2023-03-26T00:03:37.307Z,99883.84
2023-03-26T00:06:22.613Z,99889.50
2023-03-26T00:08:51.111Z,99884.78
2023-03-26T00:11:21.501Z,99888.69
2023-03-26T00:13:50.250Z,99881.84
2023-03-26T00:16:19.542Z,99887.06
2023-03-26T00:18:48.901Z,99893.44
2023-03-26T00:21:18.075Z,99888.88
2023-03-26T00:23:48.987Z,99879.63
2023-03-26T00:26:18.900Z,99885.00
2023-03-26T00:28:47.204Z,99877.28
2023-03-26T00:31:15.990Z,99883.19
2023-03-26T00:33:44.474Z,99881.09
2023-03-26T00:36:16.551Z,99877.28
2023-03-26T00:38:46.788Z,99880.06
2023-03-26T00:41:22.674Z,99871.84
2023-03-26T00:43:51.975Z,99864.78
2023-03-26T00:46:20.623Z,99867.56
2023-03-26T00:48:48.814Z,99873.81
2023-03-26T00:51:18.504Z,99867.13
2023-03-26T00:53:47.337Z,99869.78
2023-03-26T00:56:17.250Z,99860.00
2023-03-26T00:58:46.166Z,99865.81
2023-03-26T01:01:16.247Z,99855.22
2023-03-26T01:04:04.749Z,99853.91
2023-03-26T01:06:38.228Z,99862.38
2023-03-26T01:09:13.479Z,99857.22
2023-03-26T01:11:43.225Z,99855.59
2023-03-26T01:14:13.313Z,99849.63
2023-03-26T01:16:44.820Z,99852.28
2023-03-26T01:19:16.610Z,99850.09
2023-03-26T01:21:47.203Z,99851.69
2023-03-26T01:24:16.839Z,99848.09
2023-03-26T01:26:52.657Z,99843.31
2023-03-26T01:29:22.910Z,99840.53
2023-03-26T01:31:55.603Z,99837.28
2023-03-26T01:34:30.932Z,99825.53
2023-03-26T01:37:02.150Z,99829.94
2023-03-26T01:39:38.815Z,99824.94
2023-03-26T01:42:09.399Z,99820.91
2023-03-26T01:44:39.987Z,99825.88
2023-03-26T01:47:09.067Z,99819.22
2023-03-26T01:49:37.411Z,99820.81
2023-03-26T01:52:07.612Z,99817.22
2023-03-26T01:54:37.169Z,99808.94
2023-03-26T01:57:11.452Z,99807.25
2023-03-26T01:59:50.237Z,99800.63
2023-03-26T02:02:22.835Z,99801.22
2023-03-26T02:04:54.254Z,99801.13
2023-03-26T02:07:26.311Z,99784.28
2023-03-26T02:09:58.665Z,99789.75
2023-03-26T02:12:27.934Z,99777.31
2023-03-26T02:14:56.097Z,99771.78
2023-03-26T02:17:24.578Z,99773.19
2023-03-26T02:19:54.161Z,99774.69
2023-03-26T02:22:22.586Z,99766.50
2023-03-26T02:24:51.264Z,99767.13
2023-03-26T02:27:21.436Z,99761.84
2023-03-26T02:29:50.221Z,99758.06
2023-03-26T02:32:20.054Z,99757.25
2023-03-26T02:34:51.274Z,99751.31
2023-03-26T02:37:19.693Z,99746.25
2023-03-26T02:39:47.900Z,99751.41
2023-03-26T02:42:16.252Z,99751.75
2023-03-26T02:44:45.708Z,99742.94
2023-03-26T02:47:14.004Z,99748.97
2023-03-26T02:49:42.261Z,99745.16
2023-03-26T02:52:10.837Z,99746.34
2023-03-26T02:54:39.401Z,99746.53
2023-03-26T02:57:07.837Z,99747.94
2023-03-26T02:59:36.523Z,99743.63
2023-03-26T03:02:06.956Z,99745.31
2023-03-26T03:04:35.064Z,99740.91
2023-03-26T03:07:03.178Z,99732.94
2023-03-26T03:09:31.358Z,99727.66
2023-03-26T03:11:59.542Z,99732.50
2023-03-26T03:14:27.771Z,99730.91
2023-03-26T03:16:56.193Z,99733.97
2023-03-26T03:19:25.821Z,99725.72
2023-03-26T03:21:53.984Z,99715.16
2023-03-26T03:24:23.554Z,99715.00
2023-03-26T03:26:56.788Z,99710.16
2023-03-26T03:29:25.620Z,99708.78
2023-03-26T03:31:53.734Z,99695.94
2023-03-26T03:34:22.239Z,99697.78
2023-03-26T03:36:51.924Z,99698.47
2023-03-26T03:39:20.063Z,99688.41
2023-03-26T03:41:49.211Z,99683.16
2023-03-26T03:44:17.739Z,99675.13
2023-03-26T03:46:46.029Z,99678.41
2023-03-26T03:49:14.348Z,99675.31
2023-03-26T03:51:42.497Z,99680.81
2023-03-26T03:54:12.204Z,99681.47
2023-03-26T03:56:40.455Z,99676.13
2023-03-26T03:59:10.182Z,99679.41
2023-03-26T04:01:38.588Z,99685.13
2023-03-26T04:04:06.798Z,99676.56
2023-03-26T04:06:35.080Z,99673.19
2023-03-26T04:09:03.794Z,99675.81
2023-03-26T04:11:33.268Z,99679.00
2023-03-26T04:14:01.460Z,99670.56
2023-03-26T04:16:29.661Z,99672.91
2023-03-26T04:18:58.304Z,99662.03
2023-03-26T04:21:30.266Z,99663.66
2023-03-26T04:23:58.540Z,99657.13
2023-03-26T04:26:30.693Z,99658.13
2023-03-26T04:29:02.630Z,99646.16
2023-03-26T04:31:31.526Z,99651.59
2023-03-26T04:34:01.645Z,99640.13
2023-03-26T04:36:32.114Z,99633.59
2023-03-26T04:39:05.087Z,99637.03
2023-03-26T04:41:33.505Z,99627.94
2023-03-26T04:44:03.103Z,99637.09
2023-03-26T04:46:33.636Z,99626.53
2023-03-26T04:49:02.630Z,99627.34
2023-03-26T04:51:35.405Z,99621.41
2023-03-26T04:54:04.023Z,99616.47
2023-03-26T04:56:38.260Z,99615.66
2023-03-26T04:59:10.173Z,99612.44
2023-03-26T05:01:40.031Z,99609.41
2023-03-26T05:04:08.311Z,99603.97
2023-03-26T05:06:37.962Z,99597.75
2023-03-26T05:09:06.237Z,99595.91
2023-03-26T05:11:34.358Z,99602.44
2023-03-26T05:14:02.860Z,99598.13
2023-03-26T05:16:33.850Z,99596.28
2023-03-26T05:19:02.332Z,99592.25
2023-03-26T05:21:30.572Z,99590.63
2023-03-26T05:23:58.730Z,99584.63
2023-03-26T05:26:27.127Z,99582.41
2023-03-26T05:28:55.463Z,99576.59
2023-03-26T05:31:23.772Z,99580.03
2023-03-26T05:33:54.939Z,99578.63
2023-03-26T05:36:24.271Z,99564.72
2023-03-26T05:38:52.589Z,99568.16
2023-03-26T05:41:20.897Z,99556.38
2023-03-26T05:43:49.115Z,99553.06
2023-03-26T05:46:18.045Z,99552.78
2023-03-26T05:48:46.665Z,99548.84
2023-03-26T05:51:16.580Z,99532.75
2023-03-26T05:53:44.787Z,99544.66
2023-03-26T05:56:13.334Z,99536.97
2023-03-26T05:58:41.964Z,99530.72
2023-03-26T06:01:17.055Z,99524.97
2023-03-26T06:03:46.684Z,99529.31
2023-03-26T06:06:17.619Z,99513.59
2023-03-26T06:09:02.362Z,99509.28
2023-03-26T06:11:31.666Z,99496.66
2023-03-26T06:13:59.898Z,99496.06
2023-03-26T06:16:28.505Z,99500.91
2023-03-26T06:18:57.709Z,99493.75
2023-03-26T06:21:27.534Z,99492.53
2023-03-26T06:23:55.895Z,99494.34
2023-03-26T06:26:24.459Z,99490.22
2023-03-26T06:28:52.712Z,99486.19
2023-03-26T06:31:20.985Z,99487.81
2023-03-26T06:33:49.598Z,99486.50
2023-03-26T06:36:17.875Z,99487.19
2023-03-26T06:38:47.518Z,99488.00
2023-03-26T06:41:15.796Z,99485.56
2023-03-26T06:43:43.965Z,99481.31
2023-03-26T06:46:12.279Z,99493.53
2023-03-26T06:48:41.999Z,99488.38
2023-03-26T06:51:10.591Z,99491.59
2023-03-26T06:53:38.807Z,99491.41
2023-03-26T06:56:09.344Z,99496.03
2023-03-26T06:58:37.769Z,99497.03
2023-03-26T07:01:06.365Z,99491.59
2023-03-26T07:03:34.740Z,99500.06
2023-03-26T07:06:02.884Z,99495.44
2023-03-26T07:08:31.780Z,99495.88
2023-03-26T07:10:59.926Z,99495.88
2023-03-26T07:13:29.597Z,99485.97
2023-03-26T07:15:57.752Z,99480.91
2023-03-26T07:18:26.021Z,99482.53
2023-03-26T07:20:54.770Z,99470.72
2023-03-26T07:23:23.343Z,99475.16
2023-03-26T07:25:54.890Z,99468.13
2023-03-26T07:28:26.381Z,99472.44
2023-03-26T07:31:01.402Z,99460.06
2023-03-26T07:33:32.378Z,99460.06
2023-03-26T07:36:04.024Z,99457.22
2023-03-26T07:38:38.004Z,99457.72
2023-03-26T07:41:10.877Z,99456.00
2023-03-26T07:43:47.690Z,99443.91
2023-03-26T07:46:18.331Z,99441.69
2023-03-26T07:48:48.276Z,99444.22
2023-03-26T07:51:18.799Z,99443.09
2023-03-26T07:53:47.411Z,99439.56
2023-03-26T07:56:17.590Z,99436.53
2023-03-26T07:58:50.506Z,99431.91
2023-03-26T08:01:24.651Z,99433.50
2023-03-26T08:04:24.041Z,99424.09
2023-03-26T08:06:57.085Z,99431.66
2023-03-26T08:09:29.801Z,99422.19
2023-03-26T08:11:59.012Z,99421.13
2023-03-26T08:14:43.249Z,99433.88
2023-03-26T08:17:14.170Z,99422.81
2023-03-26T08:19:51.855Z,99423.97
2023-03-26T08:22:26.181Z,99418.28
2023-03-26T08:25:07.043Z,99418.28
2023-03-26T08:27:38.658Z,99416.69
2023-03-26T08:30:16.288Z,99413.28
2023-03-26T08:32:51.189Z,99416.13
2023-03-26T08:35:19.651Z,99414.19
2023-03-26T08:37:47.823Z,99407.63
2023-03-26T08:40:20.791Z,99405.59
2023-03-26T08:43:07.130Z,99411.28
2023-03-26T08:45:51.339Z,99415.47
2023-03-26T08:48:43.494Z,99413.16
2023-03-26T08:51:32.592Z,99400.84
2023-03-26T08:54:19.314Z,99406.78
2023-03-26T08:56:56.734Z,99401.19
2023-03-26T08:59:45.705Z,99408.25
2023-03-26T09:02:33.639Z,99399.78
2023-03-26T09:05:21.224Z,99400.06
2023-03-26T09:08:05.069Z,99401.84
2023-03-26T09:10:51.683Z,99401.09
2023-03-26T09:13:40.374Z,99404.72
2023-03-26T09:16:22.195Z,99398.28
2023-03-26T09:19:08.284Z,99403.72
2023-03-26T09:21:46.027Z,99405.94
2023-03-26T09:24:27.562Z,99401.91
2023-03-26T09:27:01.239Z,99400.44
2023-03-26T09:29:57.617Z,99397.59
2023-03-26T09:32:50.305Z,99396.66
2023-03-26T09:35:34.268Z,99390.44
2023-03-26T09:38:12.200Z,99397.38
2023-03-26T09:40:45.254Z,99393.66
2023-03-26T09:43:30.080Z,99399.06
2023-03-26T09:46:04.872Z,99391.69
2023-03-26T09:48:47.351Z,99400.34
2023-03-26T09:51:27.372Z,99394.53
2023-03-26T09:54:06.931Z,99396.56
2023-03-26T09:56:41.997Z,99387.59
2023-03-26T09:59:22.501Z,99390.44
2023-03-26T10:01:54.683Z,99393.25
2023-03-26T10:04:40.102Z,99397.66
2023-03-26T10:07:16.510Z,99394.44
2023-03-26T10:09:51.301Z,99392.41
2023-03-26T10:12:26.481Z,99390.09
2023-03-26T10:15:01.315Z,99392.19
2023-03-26T10:17:38.422Z,99391.69
2023-03-26T10:20:17.676Z,99389.78
2023-03-26T10:22:52.288Z,99388.34
2023-03-26T10:25:29.970Z,99383.91
2023-03-26T10:28:05.221Z,99380.53
2023-03-26T10:30:43.863Z,99387.91
2023-03-26T10:33:24.586Z,99382.28
2023-03-26T10:36:03.196Z,99379.38
2023-03-26T10:38:42.190Z,99381.66
2023-03-26T10:41:14.567Z,99376.34
2023-03-26T10:44:07.491Z,99374.44
2023-03-26T10:46:57.875Z,99381.41
2023-03-26T10:49:34.531Z,99378.81
2023-03-26T10:52:04.238Z,99377.50
2023-03-26T10:54:46.686Z,99368.66
2023-03-26T10:57:21.851Z,99375.19
2023-03-26T10:59:50.288Z,99372.69
2023-03-26T11:02:30.213Z,99368.56
2023-03-26T11:05:10.632Z,99370.81
2023-03-26T11:07:42.946Z,99367.59
2023-03-26T11:10:15.959Z,99366.91
2023-03-26T11:12:45.755Z,99367.13
2023-03-26T11:15:19.278Z,99356.19
2023-03-26T11:17:51.718Z,99365.47
2023-03-26T11:20:23.550Z,99358.06
2023-03-26T11:23:00.291Z,99362.69
2023-03-26T11:25:36.841Z,99352.53
2023-03-26T11:28:18.611Z,99358.31
2023-03-26T11:30:49.605Z,99351.41
2023-03-26T11:33:19.857Z,99361.44
2023-03-26T11:35:53.822Z,99356.44
2023-03-26T11:38:24.310Z,99353.50
2023-03-26T11:40:55.736Z,99356.44
2023-03-26T11:43:27.023Z,99353.41
2023-03-26T11:45:55.604Z,99348.19
2023-03-26T11:48:25.713Z,99348.19
2023-03-26T11:50:58.125Z,99354.03
2023-03-26T11:53:28.968Z,99350.63
2023-03-26T11:56:01.089Z,99356.44
2023-03-26T11:58:32.111Z,99356.03
2023-03-26T12:01:04.407Z,99345.00
2023-03-26T12:03:33.282Z,99346.81
2023-03-26T12:06:02.774Z,99350.69
2023-03-26T12:08:32.983Z,99344.56
2023-03-26T12:11:04.421Z,99343.41
2023-03-26T12:13:37.640Z,99338.16
2023-03-26T12:16:09.850Z,99339.97
2023-03-26T12:18:39.782Z,99342.84
2023-03-26T12:21:11.482Z,99341.56
2023-03-26T12:23:44.392Z,99337.88
2023-03-26T12:26:15.460Z,99337.84
2023-03-26T12:28:47.541Z,99341.25
2023-03-26T12:31:18.191Z,99336.50
2023-03-26T12:33:52.569Z,99339.47
2023-03-26T12:36:26.275Z,99340.47
2023-03-26T12:39:16.635Z,99336.03
2023-03-26T12:43:40.449Z,99334.81
2023-03-26T12:44:51.012Z,99340.25
2023-03-26T12:47:58.924Z,99332.19
2023-03-26T12:50:14.448Z,99338.56
2023-03-26T12:52:53.582Z,99332.41
2023-03-26T12:55:38.142Z,99337.97
2023-03-26T12:58:14.131Z,99332.97
2023-03-26T13:00:47.351Z,99337.09
2023-03-26T13:03:27.665Z,99333.66
2023-03-26T13:06:04.065Z,99345.53
2023-03-26T13:08:44.589Z,99336.91
2023-03-26T13:11:19.366Z,99333.38
2023-03-26T13:13:56.460Z,99327.63
2023-03-26T13:16:28.793Z,99328.84
2023-03-26T13:19:00.365Z,99334.44
2023-03-26T13:21:32.290Z,99328.06
2023-03-26T13:24:08.332Z,99327.72
2023-03-26T13:26:41.161Z,99326.50
2023-03-26T13:29:12.181Z,99324.38
2023-03-26T13:31:44.932Z,99326.41
2023-03-26T13:34:17.965Z,99324.00
2023-03-26T13:36:53.061Z,99326.78
2023-03-26T13:39:37.990Z,99330.53
2023-03-26T13:42:13.887Z,99324.56
2023-03-26T13:44:48.233Z,99325.50
2023-03-26T13:47:19.641Z,99326.78
2023-03-26T13:49:50.845Z,99327.44
2023-03-26T13:52:22.953Z,99331.25
2023-03-26T13:54:57.038Z,99321.47
2023-03-26T13:57:29.431Z,99332.63
2023-03-26T14:00:00.691Z,99340.28
2023-03-26T14:02:32.128Z,99336.72
2023-03-26T14:05:04.583Z,99344.78
2023-03-26T14:07:35.116Z,99350.00
2023-03-26T14:10:08.361Z,99348.28
2023-03-26T14:12:49.217Z,99343.63
2023-03-26T14:15:20.412Z,99352.44
2023-03-26T14:17:51.146Z,99344.09
2023-03-26T14:20:33.610Z,99349.84
2023-03-26T14:23:08.888Z,99355.19
2023-03-26T14:25:50.822Z,99360.19
2023-03-26T14:28:32.792Z,99350.06
2023-03-26T14:31:10.005Z,99354.91
2023-03-26T14:33:54.268Z,99362.13
2023-03-26T14:36:26.781Z,99367.25
2023-03-26T14:39:05.706Z,99373.31
2023-03-26T14:41:42.939Z,99374.41
2023-03-26T14:44:29.850Z,99364.47
2023-03-26T14:47:17.936Z,99377.19
2023-03-26T14:49:51.786Z,99380.25
2023-03-26T14:52:22.198Z,99384.03
2023-03-26T14:54:51.638Z,99378.28
2023-03-26T14:57:32.481Z,99380.19
2023-03-26T15:00:23.568Z,99390.28
2023-03-26T15:03:11.878Z,99398.94
2023-03-26T15:06:01.569Z,99405.00
2023-03-26T15:08:51.953Z,99403.22
2023-03-26T15:11:27.502Z,99406.00
2023-03-26T15:14:14.213Z,99413.06
2023-03-26T15:17:00.518Z,99416.56
2023-03-26T15:19:53.352Z,99414.25
2023-03-26T15:22:34.041Z,99424.63
2023-03-26T15:25:21.283Z,99425.50
2023-03-26T15:28:12.322Z,99429.38
2023-03-26T15:30:57.889Z,99433.19
2023-03-26T15:33:57.116Z,99428.53
2023-03-26T15:36:44.612Z,99448.91
2023-03-26T15:39:27.833Z,99442.53
2023-03-26T15:41:59.376Z,99446.75
2023-03-26T15:44:53.267Z,99453.50
2023-03-26T15:47:41.045Z,99459.91
2023-03-26T15:50:16.647Z,99459.81
2023-03-26T15:52:48.948Z,99464.34
2023-03-26T15:55:27.740Z,99465.16
2023-03-26T15:58:01.418Z,99471.22
2023-03-26T16:00:31.981Z,99471.59
2023-03-26T16:03:14.013Z,99470.16
2023-03-26T16:05:52.543Z,99485.63
2023-03-26T16:08:25.783Z,99489.84
2023-03-26T16:10:56.920Z,99487.97
2023-03-26T16:13:31.259Z,99488.09
2023-03-26T16:16:16.297Z,99501.38
2023-03-26T16:18:45.881Z,99497.88
2023-03-26T16:21:37.310Z,99511.50
2023-03-26T16:24:18.825Z,99510.56
2023-03-26T16:26:55.578Z,99518.44
2023-03-26T16:29:28.365Z,99527.91
2023-03-26T16:32:05.107Z,99533.38
2023-03-26T16:34:42.076Z,99533.56
2023-03-26T16:37:37.552Z,99534.25
2023-03-26T16:40:23.518Z,99540.63
2023-03-26T16:42:55.927Z,99546.06
2023-03-26T16:45:30.527Z,99553.34
2023-03-26T16:48:03.327Z,99550.75
2023-03-26T16:50:37.222Z,99556.13
2023-03-26T16:53:13.512Z,99560.88
2023-03-26T16:55:44.189Z,99565.53
2023-03-26T16:58:16.971Z,99582.88
2023-03-26T17:00:49.209Z,99574.50
2023-03-26T17:03:24.425Z,99593.38
2023-03-26T17:06:03.572Z,99593.00
2023-03-26T17:08:37.324Z,99600.84
2023-03-26T17:11:09.577Z,99609.91
2023-03-26T17:13:47.186Z,99615.75
2023-03-26T17:16:22.220Z,99614.84
2023-03-26T17:18:55.693Z,99624.53
2023-03-26T17:21:28.835Z,99626.13
2023-03-26T17:24:19.131Z,99636.94
2023-03-26T17:26:52.169Z,99644.78
2023-03-26T17:29:28.125Z,99657.06
2023-03-26T17:32:01.517Z,99659.69
2023-03-26T17:34:33.889Z,99654.25
2023-03-26T17:37:04.381Z,99664.78
2023-03-26T17:39:51.520Z,99671.94
2023-03-26T17:42:29.060Z,99682.72
2023-03-26T17:45:04.411Z,99674.16
2023-03-26T17:47:35.895Z,99686.13
2023-03-26T17:50:06.356Z,99697.69
2023-03-26T17:52:41.541Z,99692.41
2023-03-26T17:55:10.854Z,99696.44
2023-03-26T17:57:45.412Z,99712.41
2023-03-26T18:00:21.687Z,99711.50
2023-03-26T18:02:54.175Z,99721.88
2023-03-26T18:05:25.737Z,99725.09
2023-03-26T18:08:06.123Z,99739.56
2023-03-26T18:10:44.069Z,99739.78
2023-03-26T18:13:37.462Z,99752.22
2023-03-26T18:16:13.580Z,99753.81
2023-03-26T18:18:46.438Z,99754.19
2023-03-26T18:21:20.957Z,99763.66
2023-03-26T18:23:50.669Z,99763.72
2023-03-26T18:26:20.873Z,99771.53
2023-03-26T18:28:51.538Z,99779.44
2023-03-26T18:31:24.778Z,99783.69
2023-03-26T18:33:56.893Z,99786.41
2023-03-26T18:36:27.633Z,99790.03
2023-03-26T18:38:57.341Z,99791.84
2023-03-26T18:41:28.306Z,99798.97
2023-03-26T18:43:57.349Z,99798.69
2023-03-26T18:46:27.088Z,99802.13
2023-03-26T18:48:56.772Z,99807.25
2023-03-26T18:51:26.762Z,99808.81
2023-03-26T18:53:57.172Z,99805.28
2023-03-26T18:56:32.332Z,99813.25
2023-03-26T18:59:02.368Z,99811.16
2023-03-26T19:01:33.473Z,99824.69
2023-03-26T19:04:03.982Z,99831.88
2023-03-26T19:06:35.686Z,99848.31
2023-03-26T19:09:13.478Z,99845.03
2023-03-26T19:11:49.571Z,99851.28
2023-03-26T19:14:19.060Z,99859.94
2023-03-26T19:16:50.340Z,99864.19
2023-03-26T19:19:20.542Z,99860.88
2023-03-26T19:21:49.411Z,99871.50
2023-03-26T19:24:18.926Z,99875.31
2023-03-26T19:26:48.340Z,99880.63
2023-03-26T19:29:25.468Z,99886.94
2023-03-26T19:32:01.672Z,99891.59
2023-03-26T19:34:33.307Z,99901.44
2023-03-26T19:37:02.823Z,99911.25
2023-03-26T19:39:38.750Z,99908.00
2023-03-26T19:42:08.403Z,99909.06
2023-03-26T19:44:39.570Z,99909.88
2023-03-26T19:47:15.890Z,99912.72
2023-03-26T19:49:50.954Z,99913.53
2023-03-26T19:52:22.077Z,99922.09
2023-03-26T19:54:59.373Z,99926.50
2023-03-26T19:57:30.049Z,99944.97
2023-03-26T19:59:58.407Z,99937.16
2023-03-26T20:02:28.660Z,99954.25
2023-03-26T20:04:56.999Z,99954.34
2023-03-26T20:07:35.886Z,99964.84
2023-03-26T20:10:06.174Z,99969.28
2023-03-26T20:12:34.324Z,99980.94
2023-03-26T20:15:02.879Z,99985.28
2023-03-26T20:17:34.960Z,99990.63
2023-03-26T20:20:08.148Z,100009.91
2023-03-26T20:22:36.455Z,100012.34
2023-03-26T20:25:12.039Z,100006.25
2023-03-26T20:27:40.536Z,100019.06
2023-03-26T20:30:10.518Z,100016.97
2023-03-26T20:32:44.344Z,100028.91
2023-03-26T20:35:16.283Z,100033.28
2023-03-26T20:37:44.723Z,100043.03
2023-03-26T20:40:14.089Z,100045.78
2023-03-26T20:42:44.869Z,100053.72
2023-03-26T20:45:15.459Z,100060.25
2023-03-26T20:47:45.114Z,100069.19
2023-03-26T20:50:15.321Z,100076.28
2023-03-26T20:52:44.650Z,100068.72
2023-03-26T20:55:13.575Z,100076.34
2023-03-26T20:57:42.774Z,100087.69
2023-03-26T21:00:16.661Z,100080.66
2023-03-26T21:02:46.531Z,100081.47
2023-03-26T21:05:15.620Z,100092.56
2023-03-26T21:07:44.635Z,100092.53
2023-03-26T21:10:14.056Z,100096.31
2023-03-26T21:12:46.126Z,100094.13
2023-03-26T21:15:22.910Z,100113.63
2023-03-26T21:17:55.004Z,100117.94
2023-03-26T21:20:24.648Z,100119.50
2023-03-26T21:22:58.238Z,100121.63
2023-03-26T21:25:33.405Z,100131.31
2023-03-26T21:28:08.981Z,100139.94
2023-03-26T21:30:37.445Z,100139.31
2023-03-26T21:33:07.227Z,100147.41
2023-03-26T21:35:35.834Z,100155.00
2023-03-26T21:38:05.078Z,100154.44
2023-03-26T21:40:34.173Z,100164.72
2023-03-26T21:43:02.670Z,100168.19
2023-03-26T21:45:31.152Z,100176.53
2023-03-26T21:47:59.500Z,100181.66
2023-03-26T21:50:29.532Z,100192.44
2023-03-26T21:52:59.081Z,100195.56
2023-03-26T21:55:29.103Z,100192.13
2023-03-26T21:58:13.453Z,100202.38
2023-03-26T22:00:44.991Z,100211.22
2023-03-26T22:03:16.893Z,100206.25
2023-03-26T22:05:49.260Z,100208.41
2023-03-26T22:08:22.877Z,100214.38
2023-03-26T22:10:51.530Z,100222.56
2023-03-26T22:13:19.679Z,100237.88
2023-03-26T22:15:48.150Z,100230.53
2023-03-26T22:18:47.545Z,100242.84
2023-03-26T22:21:17.061Z,100249.00
2023-03-26T22:23:52.738Z,100255.66
2023-03-26T22:26:21.878Z,100262.16
2023-03-26T22:28:50.492Z,100256.16
2023-03-26T22:31:19.050Z,100265.03
2023-03-26T22:33:47.292Z,100264.53
2023-03-26T22:36:22.466Z,100260.94
2023-03-26T22:38:53.094Z,100269.91
2023-03-26T22:41:21.815Z,100265.88
2023-03-26T22:43:52.026Z,100274.28
2023-03-26T22:46:20.793Z,100284.16
2023-03-26T22:48:49.300Z,100290.22
2023-03-26T22:51:19.918Z,100286.84
2023-03-26T22:53:48.151Z,100295.31
2023-03-26T22:56:17.119Z,100301.94
2023-03-26T22:58:47.277Z,100304.06
2023-03-26T23:01:17.759Z,100311.59
2023-03-26T23:03:46.627Z,100314.38
2023-03-26T23:06:15.287Z,100309.53
2023-03-26T23:08:44.859Z,100316.22
2023-03-26T23:11:14.276Z,100327.50
2023-03-26T23:13:42.799Z,100330.69
2023-03-26T23:16:12.596Z,100337.66
2023-03-26T23:18:41.117Z,100341.69
2023-03-26T23:21:13.728Z,100355.25
2023-03-26T23:23:42.118Z,100346.72
2023-03-26T23:26:11.930Z,100355.22
2023-03-26T23:28:40.813Z,100362.84
2023-03-26T23:31:09.956Z,100364.16
2023-03-26T23:33:39.071Z,100364.53
2023-03-26T23:36:09.297Z,100379.25
2023-03-26T23:38:44.061Z,100385.88
2023-03-26T23:41:14.979Z,100392.22
2023-03-26T23:43:54.021Z,100391.00
2023-03-26T23:46:24.297Z,100388.00
2023-03-26T23:48:53.105Z,100391.66
2023-03-26T23:51:22.293Z,100390.75
2023-03-26T23:53:52.504Z,100399.91
2023-03-26T23:56:22.118Z,100407.16
2023-03-26T23:58:50.357Z,100405.69
